sensor_id;sensor_type;location;lat;lon;timestamp;P1;durP1;ratioP1;P2;durP2;ratioP2
21814;SDS011;11069;48.988;8.450;2022-07-22T00:00:32;9.73;;;8.73;;
21814;SDS011;11069;48.988;8.450;2022-07-22T00:02:58;10.18;;;9.02;;
21814;SDS011;11069;48.988;8.450;2022-07-22T00:05:23;11.23;;;8.52;;
21814;SDS011;11069;48.988;8.450;2022-07-22T00:07:49;10.32;;;9.30;;
21814;SDS011;11069;48.988;8.450;2022-07-22T00:10:15;12.82;;;9.07;;
21814;SDS011;11069;48.988;8.450;2022-07-22T00:12:40;11.77;;;9.60;;
21814;SDS011;11069;48.988;8.450;2022-07-22T00:15:07;11.02;;;9.25;;
21814;SDS011;11069;48.988;8.450;2022-07-22T00:17:33;10.90;;;9.38;;
21814;SDS011;11069;48.988;8.450;2022-07-22T00:20:01;12.48;;;9.15;;
21814;SDS011;11069;48.988;8.450;2022-07-22T00:22:27;11.20;;;10.02;;
21814;SDS011;11069;48.988;8.450;2022-07-22T00:24:53;10.73;;;9.73;;
21814;SDS011;11069;48.988;8.450;2022-07-22T00:27:18;11.90;;;9.80;;
21814;SDS011;11069;48.988;8.450;2022-07-22T00:29:44;14.48;;;10.07;;
21814;SDS011;11069;48.988;8.450;2022-07-22T00:32:09;14.40;;;10.60;;
21814;SDS011;11069;48.988;8.450;2022-07-22T00:34:35;11.88;;;10.02;;
21814;SDS011;11069;48.988;8.450;2022-07-22T00:37:00;11.90;;;10.50;;
21814;SDS011;11069;48.988;8.450;2022-07-22T00:39:26;14.88;;;9.95;;
21814;SDS011;11069;48.988;8.450;2022-07-22T00:41:52;11.68;;;9.98;;
21814;SDS011;11069;48.988;8.450;2022-07-22T00:44:17;11.63;;;9.63;;
21814;SDS011;11069;48.988;8.450;2022-07-22T00:46:43;12.05;;;10.43;;
21814;SDS011;11069;48.988;8.450;2022-07-22T00:49:09;10.20;;;9.20;;
21814;SDS011;11069;48.988;8.450;2022-07-22T00:51:35;11.40;;;9.75;;
21814;SDS011;11069;48.988;8.450;2022-07-22T00:54:04;12.07;;;9.98;;
21814;SDS011;11069;48.988;8.450;2022-07-22T00:56:31;12.40;;;10.43;;
21814;SDS011;11069;48.988;8.450;2022-07-22T00:58:58;12.48;;;10.30;;
21814;SDS011;11069;48.988;8.450;2022-07-22T01:01:26;11.32;;;10.20;;
21814;SDS011;11069;48.988;8.450;2022-07-22T01:03:52;12.98;;;10.27;;
21814;SDS011;11069;48.988;8.450;2022-07-22T01:06:17;12.07;;;10.63;;
21814;SDS011;11069;48.988;8.450;2022-07-22T01:08:43;10.05;;;9.07;;
21814;SDS011;11069;48.988;8.450;2022-07-22T01:11:09;10.55;;;9.55;;
21814;SDS011;11069;48.988;8.450;2022-07-22T01:13:36;11.00;;;9.90;;
21814;SDS011;11069;48.988;8.450;2022-07-22T01:16:03;11.00;;;9.88;;
21814;SDS011;11069;48.988;8.450;2022-07-22T01:18:30;14.50;;;10.20;;
21814;SDS011;11069;48.988;8.450;2022-07-22T01:20:56;12.73;;;10.43;;
21814;SDS011;11069;48.988;8.450;2022-07-22T01:23:22;11.35;;;10.15;;
21814;SDS011;11069;48.988;8.450;2022-07-22T01:25:48;12.05;;;10.82;;
21814;SDS011;11069;48.988;8.450;2022-07-22T01:28:14;11.55;;;10.55;;
21814;SDS011;11069;48.988;8.450;2022-07-22T01:30:39;12.15;;;10.82;;
21814;SDS011;11069;48.988;8.450;2022-07-22T01:33:05;12.27;;;11.07;;
21814;SDS011;11069;48.988;8.450;2022-07-22T01:35:31;14.07;;;11.60;;
21814;SDS011;11069;48.988;8.450;2022-07-22T01:37:56;13.10;;;11.52;;
21814;SDS011;11069;48.988;8.450;2022-07-22T01:40:22;15.25;;;12.13;;
21814;SDS011;11069;48.988;8.450;2022-07-22T01:42:47;13.75;;;11.73;;
21814;SDS011;11069;48.988;8.450;2022-07-22T01:45:13;13.13;;;11.82;;
21814;SDS011;11069;48.988;8.450;2022-07-22T01:47:39;13.18;;;11.77;;
21814;SDS011;11069;48.988;8.450;2022-07-22T01:50:05;13.20;;;12.00;;
21814;SDS011;11069;48.988;8.450;2022-07-22T01:52:33;13.82;;;12.32;;
21814;SDS011;11069;48.988;8.450;2022-07-22T01:54:59;15.77;;;11.88;;
21814;SDS011;11069;48.988;8.450;2022-07-22T01:57:24;13.02;;;11.73;;
21814;SDS011;11069;48.988;8.450;2022-07-22T01:59:50;13.70;;;12.00;;
21814;SDS011;11069;48.988;8.450;2022-07-22T02:02:16;12.60;;;11.50;;
21814;SDS011;11069;48.988;8.450;2022-07-22T02:04:41;12.80;;;11.35;;
21814;SDS011;11069;48.988;8.450;2022-07-22T02:07:07;13.45;;;12.25;;
21814;SDS011;11069;48.988;8.450;2022-07-22T02:09:33;13.98;;;11.48;;
21814;SDS011;11069;48.988;8.450;2022-07-22T02:11:58;13.18;;;11.73;;
21814;SDS011;11069;48.988;8.450;2022-07-22T02:14:24;11.85;;;10.63;;
21814;SDS011;11069;48.988;8.450;2022-07-22T02:16:49;12.98;;;11.73;;
21814;SDS011;11069;48.988;8.450;2022-07-22T02:19:15;12.65;;;11.35;;
21814;SDS011;11069;48.988;8.450;2022-07-22T02:21:40;12.48;;;11.27;;
21814;SDS011;11069;48.988;8.450;2022-07-22T02:24:06;12.95;;;11.23;;
21814;SDS011;11069;48.988;8.450;2022-07-22T02:26:32;12.75;;;11.32;;
21814;SDS011;11069;48.988;8.450;2022-07-22T02:28:57;13.10;;;11.80;;
21814;SDS011;11069;48.988;8.450;2022-07-22T02:31:23;13.07;;;11.75;;
21814;SDS011;11069;48.988;8.450;2022-07-22T02:33:49;12.90;;;11.68;;
21814;SDS011;11069;48.988;8.450;2022-07-22T02:36:14;12.95;;;11.55;;
21814;SDS011;11069;48.988;8.450;2022-07-22T02:38:41;15.85;;;12.48;;
21814;SDS011;11069;48.988;8.450;2022-07-22T02:41:07;13.15;;;11.85;;
21814;SDS011;11069;48.988;8.450;2022-07-22T02:43:32;12.45;;;11.15;;
21814;SDS011;11069;48.988;8.450;2022-07-22T02:45:58;13.75;;;11.88;;
21814;SDS011;11069;48.988;8.450;2022-07-22T02:48:24;11.80;;;10.73;;
21814;SDS011;11069;48.988;8.450;2022-07-22T02:50:50;13.02;;;11.40;;
21814;SDS011;11069;48.988;8.450;2022-07-22T02:53:15;12.75;;;11.45;;
21814;SDS011;11069;48.988;8.450;2022-07-22T02:55:41;11.75;;;10.75;;
21814;SDS011;11069;48.988;8.450;2022-07-22T02:58:07;12.73;;;11.52;;
21814;SDS011;11069;48.988;8.450;2022-07-22T03:00:34;13.02;;;11.65;;
21814;SDS011;11069;48.988;8.450;2022-07-22T03:03:02;12.55;;;11.43;;
21814;SDS011;11069;48.988;8.450;2022-07-22T03:05:28;13.77;;;12.38;;
21814;SDS011;11069;48.988;8.450;2022-07-22T03:07:54;14.07;;;12.05;;
21814;SDS011;11069;48.988;8.450;2022-07-22T03:10:20;13.68;;;12.27;;
21814;SDS011;11069;48.988;8.450;2022-07-22T03:12:45;16.95;;;13.60;;
21814;SDS011;11069;48.988;8.450;2022-07-22T03:15:11;13.18;;;11.98;;
21814;SDS011;11069;48.988;8.450;2022-07-22T03:17:37;13.20;;;11.90;;
21814;SDS011;11069;48.988;8.450;2022-07-22T03:20:04;13.25;;;11.98;;
21814;SDS011;11069;48.988;8.450;2022-07-22T03:22:30;15.95;;;13.23;;
21814;SDS011;11069;48.988;8.450;2022-07-22T03:24:56;14.07;;;12.63;;
21814;SDS011;11069;48.988;8.450;2022-07-22T03:27:21;14.88;;;13.07;;
21814;SDS011;11069;48.988;8.450;2022-07-22T03:29:47;13.77;;;12.40;;
21814;SDS011;11069;48.988;8.450;2022-07-22T03:32:13;13.95;;;12.63;;
21814;SDS011;11069;48.988;8.450;2022-07-22T03:34:38;13.90;;;12.60;;
21814;SDS011;11069;48.988;8.450;2022-07-22T03:37:04;13.55;;;12.30;;
21814;SDS011;11069;48.988;8.450;2022-07-22T03:39:30;14.25;;;12.85;;
21814;SDS011;11069;48.988;8.450;2022-07-22T03:41:55;14.40;;;12.90;;
21814;SDS011;11069;48.988;8.450;2022-07-22T03:44:21;14.63;;;13.13;;
21814;SDS011;11069;48.988;8.450;2022-07-22T03:46:47;16.38;;;13.65;;
21814;SDS011;11069;48.988;8.450;2022-07-22T03:49:12;15.10;;;13.63;;
21814;SDS011;11069;48.988;8.450;2022-07-22T03:51:38;14.82;;;13.35;;
21814;SDS011;11069;48.988;8.450;2022-07-22T03:54:03;16.15;;;14.45;;
21814;SDS011;11069;48.988;8.450;2022-07-22T03:56:29;14.98;;;13.50;;
21814;SDS011;11069;48.988;8.450;2022-07-22T03:58:55;16.02;;;13.70;;
21814;SDS011;11069;48.988;8.450;2022-07-22T04:01:20;14.20;;;12.90;;
21814;SDS011;11069;48.988;8.450;2022-07-22T04:03:46;14.30;;;12.57;;
21814;SDS011;11069;48.988;8.450;2022-07-22T04:06:11;13.48;;;12.07;;
21814;SDS011;11069;48.988;8.450;2022-07-22T04:08:37;13.25;;;12.00;;
21814;SDS011;11069;48.988;8.450;2022-07-22T04:11:03;12.63;;;11.43;;
21814;SDS011;11069;48.988;8.450;2022-07-22T04:13:28;13.05;;;11.85;;
21814;SDS011;11069;48.988;8.450;2022-07-22T04:15:54;13.45;;;12.10;;
21814;SDS011;11069;48.988;8.450;2022-07-22T04:18:20;13.40;;;12.10;;
21814;SDS011;11069;48.988;8.450;2022-07-22T04:20:45;14.30;;;12.80;;
21814;SDS011;11069;48.988;8.450;2022-07-22T04:23:11;13.68;;;12.25;;
21814;SDS011;11069;48.988;8.450;2022-07-22T04:25:37;15.07;;;12.38;;
21814;SDS011;11069;48.988;8.450;2022-07-22T04:28:03;13.45;;;12.20;;
21814;SDS011;11069;48.988;8.450;2022-07-22T04:30:29;13.63;;;12.32;;
21814;SDS011;11069;48.988;8.450;2022-07-22T04:32:55;13.23;;;11.98;;
21814;SDS011;11069;48.988;8.450;2022-07-22T04:35:20;14.02;;;11.77;;
21814;SDS011;11069;48.988;8.450;2022-07-22T04:37:46;13.57;;;12.15;;
21814;SDS011;11069;48.988;8.450;2022-07-22T04:40:12;14.02;;;12.70;;
21814;SDS011;11069;48.988;8.450;2022-07-22T04:42:37;12.45;;;11.35;;
21814;SDS011;11069;48.988;8.450;2022-07-22T04:45:03;13.27;;;11.80;;
21814;SDS011;11069;48.988;8.450;2022-07-22T04:47:29;13.20;;;11.73;;
21814;SDS011;11069;48.988;8.450;2022-07-22T04:49:55;12.73;;;11.43;;
21814;SDS011;11069;48.988;8.450;2022-07-22T04:52:20;13.57;;;12.18;;
21814;SDS011;11069;48.988;8.450;2022-07-22T04:54:46;13.75;;;12.23;;
21814;SDS011;11069;48.988;8.450;2022-07-22T04:57:12;15.82;;;11.88;;
21814;SDS011;11069;48.988;8.450;2022-07-22T04:59:37;14.93;;;12.57;;
21814;SDS011;11069;48.988;8.450;2022-07-22T05:02:03;13.43;;;11.93;;
21814;SDS011;11069;48.988;8.450;2022-07-22T05:04:28;13.07;;;11.80;;
21814;SDS011;11069;48.988;8.450;2022-07-22T05:06:54;13.60;;;11.70;;
21814;SDS011;11069;48.988;8.450;2022-07-22T05:09:20;12.82;;;11.52;;
21814;SDS011;11069;48.988;8.450;2022-07-22T05:11:45;13.40;;;12.00;;
21814;SDS011;11069;48.988;8.450;2022-07-22T05:14:11;12.35;;;11.05;;
21814;SDS011;11069;48.988;8.450;2022-07-22T05:16:37;19.05;;;12.25;;
21814;SDS011;11069;48.988;8.450;2022-07-22T05:19:03;12.95;;;11.65;;
21814;SDS011;11069;48.988;8.450;2022-07-22T05:21:30;13.15;;;11.80;;
21814;SDS011;11069;48.988;8.450;2022-07-22T05:23:56;14.95;;;12.27;;
21814;SDS011;11069;48.988;8.450;2022-07-22T05:26:21;12.48;;;11.18;;
21814;SDS011;11069;48.988;8.450;2022-07-22T05:28:48;13.20;;;11.80;;
21814;SDS011;11069;48.988;8.450;2022-07-22T05:31:13;15.40;;;11.45;;
21814;SDS011;11069;48.988;8.450;2022-07-22T05:33:39;13.95;;;12.27;;
21814;SDS011;11069;48.988;8.450;2022-07-22T05:36:04;13.98;;;11.77;;
21814;SDS011;11069;48.988;8.450;2022-07-22T05:38:34;13.85;;;11.65;;
21814;SDS011;11069;48.988;8.450;2022-07-22T05:40:59;12.90;;;11.60;;
21814;SDS011;11069;48.988;8.450;2022-07-22T05:43:25;12.95;;;11.65;;
21814;SDS011;11069;48.988;8.450;2022-07-22T05:45:51;15.52;;;12.95;;
21814;SDS011;11069;48.988;8.450;2022-07-22T05:48:16;17.15;;;12.70;;
21814;SDS011;11069;48.988;8.450;2022-07-22T05:50:42;16.20;;;14.00;;
21814;SDS011;11069;48.988;8.450;2022-07-22T05:53:08;16.17;;;14.23;;
21814;SDS011;11069;48.988;8.450;2022-07-22T05:55:33;16.73;;;12.95;;
21814;SDS011;11069;48.988;8.450;2022-07-22T05:57:59;15.70;;;14.07;;
21814;SDS011;11069;48.988;8.450;2022-07-22T06:00:24;17.20;;;13.80;;
21814;SDS011;11069;48.988;8.450;2022-07-22T06:02:50;19.67;;;14.15;;
21814;SDS011;11069;48.988;8.450;2022-07-22T06:05:15;18.33;;;13.93;;
21814;SDS011;11069;48.988;8.450;2022-07-22T06:07:41;16.65;;;14.10;;
21814;SDS011;11069;48.988;8.450;2022-07-22T06:10:07;21.05;;;14.05;;
21814;SDS011;11069;48.988;8.450;2022-07-22T06:12:32;14.52;;;11.93;;
21814;SDS011;11069;48.988;8.450;2022-07-22T06:14:58;14.90;;;12.60;;
21814;SDS011;11069;48.988;8.450;2022-07-22T06:17:24;12.23;;;11.00;;
21814;SDS011;11069;48.988;8.450;2022-07-22T06:19:49;12.95;;;11.18;;
21814;SDS011;11069;48.988;8.450;2022-07-22T06:22:15;13.88;;;10.63;;
21814;SDS011;11069;48.988;8.450;2022-07-22T06:24:42;14.50;;;11.57;;
21814;SDS011;11069;48.988;8.450;2022-07-22T06:27:09;17.13;;;12.32;;
21814;SDS011;11069;48.988;8.450;2022-07-22T06:29:34;15.48;;;11.38;;
21814;SDS011;11069;48.988;8.450;2022-07-22T06:32:00;14.57;;;10.43;;
21814;SDS011;11069;48.988;8.450;2022-07-22T06:34:26;11.32;;;10.23;;
21814;SDS011;11069;48.988;8.450;2022-07-22T06:36:52;12.18;;;10.93;;
21814;SDS011;11069;48.988;8.450;2022-07-22T06:39:18;14.00;;;11.65;;
21814;SDS011;11069;48.988;8.450;2022-07-22T06:41:43;12.93;;;10.48;;
21814;SDS011;11069;48.988;8.450;2022-07-22T06:44:09;12.18;;;10.82;;
21814;SDS011;11069;48.988;8.450;2022-07-22T06:46:35;13.07;;;11.43;;
21814;SDS011;11069;48.988;8.450;2022-07-22T06:49:00;13.68;;;10.75;;
21814;SDS011;11069;48.988;8.450;2022-07-22T06:51:26;13.18;;;10.68;;
21814;SDS011;11069;48.988;8.450;2022-07-22T06:53:52;13.95;;;11.32;;
21814;SDS011;11069;48.988;8.450;2022-07-22T06:56:18;14.85;;;12.07;;
21814;SDS011;11069;48.988;8.450;2022-07-22T06:58:43;17.20;;;11.63;;
21814;SDS011;11069;48.988;8.450;2022-07-22T07:01:09;15.77;;;10.95;;
21814;SDS011;11069;48.988;8.450;2022-07-22T07:03:35;15.02;;;9.80;;
21814;SDS011;11069;48.988;8.450;2022-07-22T07:06:01;12.07;;;9.38;;
21814;SDS011;11069;48.988;8.450;2022-07-22T07:08:27;10.32;;;9.32;;
21814;SDS011;11069;48.988;8.450;2022-07-22T07:10:53;11.38;;;9.43;;
21814;SDS011;11069;48.988;8.450;2022-07-22T07:13:19;9.95;;;9.00;;
21814;SDS011;11069;48.988;8.450;2022-07-22T07:15:44;12.30;;;9.38;;
21814;SDS011;11069;48.988;8.450;2022-07-22T07:18:10;10.25;;;9.18;;
21814;SDS011;11069;48.988;8.450;2022-07-22T07:20:37;12.52;;;9.93;;
21814;SDS011;11069;48.988;8.450;2022-07-22T07:23:03;10.98;;;9.13;;
21814;SDS011;11069;48.988;8.450;2022-07-22T07:25:29;10.48;;;9.30;;
21814;SDS011;11069;48.988;8.450;2022-07-22T07:27:54;10.55;;;9.45;;
21814;SDS011;11069;48.988;8.450;2022-07-22T07:30:21;10.10;;;9.10;;
21814;SDS011;11069;48.988;8.450;2022-07-22T07:32:47;14.95;;;9.15;;
21814;SDS011;11069;48.988;8.450;2022-07-22T07:35:13;12.05;;;9.75;;
21814;SDS011;11069;48.988;8.450;2022-07-22T07:37:38;12.30;;;9.50;;
21814;SDS011;11069;48.988;8.450;2022-07-22T07:40:04;9.95;;;8.95;;
21814;SDS011;11069;48.988;8.450;2022-07-22T07:42:30;10.93;;;8.35;;
21814;SDS011;11069;48.988;8.450;2022-07-22T07:44:56;9.57;;;8.63;;
21814;SDS011;11069;48.988;8.450;2022-07-22T07:47:22;9.80;;;8.73;;
21814;SDS011;11069;48.988;8.450;2022-07-22T07:49:48;11.07;;;8.90;;
21814;SDS011;11069;48.988;8.450;2022-07-22T07:52:14;9.18;;;7.93;;
21814;SDS011;11069;48.988;8.450;2022-07-22T07:54:41;9.40;;;8.10;;
21814;SDS011;11069;48.988;8.450;2022-07-22T07:57:08;9.35;;;8.15;;
21814;SDS011;11069;48.988;8.450;2022-07-22T07:59:35;10.52;;;7.13;;
21814;SDS011;11069;48.988;8.450;2022-07-22T08:02:02;10.85;;;8.75;;
21814;SDS011;11069;48.988;8.450;2022-07-22T08:04:28;11.27;;;8.05;;
21814;SDS011;11069;48.988;8.450;2022-07-22T08:06:54;8.65;;;7.75;;
21814;SDS011;11069;48.988;8.450;2022-07-22T08:09:20;9.68;;;7.35;;
21814;SDS011;11069;48.988;8.450;2022-07-22T08:11:45;10.05;;;8.00;;
21814;SDS011;11069;48.988;8.450;2022-07-22T08:14:11;10.68;;;7.90;;
21814;SDS011;11069;48.988;8.450;2022-07-22T08:16:37;8.68;;;7.78;;
21814;SDS011;11069;48.988;8.450;2022-07-22T08:19:02;10.75;;;7.65;;
21814;SDS011;11069;48.988;8.450;2022-07-22T08:21:28;10.85;;;8.15;;
21814;SDS011;11069;48.988;8.450;2022-07-22T08:23:54;8.70;;;7.88;;
21814;SDS011;11069;48.988;8.450;2022-07-22T08:26:20;16.25;;;8.63;;
21814;SDS011;11069;48.988;8.450;2022-07-22T08:28:46;8.50;;;7.63;;
21814;SDS011;11069;48.988;8.450;2022-07-22T08:31:12;9.38;;;7.35;;
21814;SDS011;11069;48.988;8.450;2022-07-22T08:33:37;10.93;;;8.52;;
21814;SDS011;11069;48.988;8.450;2022-07-22T08:36:03;10.48;;;8.15;;
21814;SDS011;11069;48.988;8.450;2022-07-22T08:38:29;9.55;;;7.32;;
21814;SDS011;11069;48.988;8.450;2022-07-22T08:40:55;9.77;;;8.75;;
21814;SDS011;11069;48.988;8.450;2022-07-22T08:43:21;9.63;;;7.85;;
21814;SDS011;11069;48.988;8.450;2022-07-22T08:45:47;12.30;;;8.00;;
21814;SDS011;11069;48.988;8.450;2022-07-22T08:48:14;11.93;;;8.43;;
21814;SDS011;11069;48.988;8.450;2022-07-22T08:50:39;8.50;;;7.28;;
21814;SDS011;11069;48.988;8.450;2022-07-22T08:53:09;9.80;;;7.75;;
21814;SDS011;11069;48.988;8.450;2022-07-22T08:55:45;11.77;;;7.90;;
21814;SDS011;11069;48.988;8.450;2022-07-22T08:58:12;10.70;;;7.97;;
21814;SDS011;11069;48.988;8.450;2022-07-22T09:00:39;9.32;;;7.90;;
21814;SDS011;11069;48.988;8.450;2022-07-22T09:03:18;9.30;;;7.72;;
21814;SDS011;11069;48.988;8.450;2022-07-22T09:05:51;9.23;;;8.15;;
21814;SDS011;11069;48.988;8.450;2022-07-22T09:08:18;8.82;;;7.65;;
21814;SDS011;11069;48.988;8.450;2022-07-22T09:10:44;10.90;;;8.07;;
21814;SDS011;11069;48.988;8.450;2022-07-22T09:13:10;7.95;;;7.10;;
21814;SDS011;11069;48.988;8.450;2022-07-22T09:15:37;8.40;;;7.40;;
21814;SDS011;11069;48.988;8.450;2022-07-22T09:18:06;9.57;;;7.53;;
21814;SDS011;11069;48.988;8.450;2022-07-22T09:20:36;7.50;;;6.80;;
21814;SDS011;11069;48.988;8.450;2022-07-22T09:23:10;14.07;;;9.85;;
21814;SDS011;11069;48.988;8.450;2022-07-22T09:25:38;10.57;;;7.95;;
21814;SDS011;11069;48.988;8.450;2022-07-22T09:30:31;10.75;;;7.18;;
21814;SDS011;11069;48.988;8.450;2022-07-22T09:32:58;7.88;;;7.07;;
21814;SDS011;11069;48.988;8.450;2022-07-22T09:35:24;8.63;;;6.97;;
21814;SDS011;11069;48.988;8.450;2022-07-22T09:37:52;7.68;;;6.85;;
21814;SDS011;11069;48.988;8.450;2022-07-22T09:40:19;7.88;;;6.88;;
21814;SDS011;11069;48.988;8.450;2022-07-22T09:42:52;9.75;;;7.10;;
21814;SDS011;11069;48.988;8.450;2022-07-22T09:45:19;7.50;;;6.75;;
21814;SDS011;11069;48.988;8.450;2022-07-22T09:47:47;13.38;;;7.32;;
21814;SDS011;11069;48.988;8.450;2022-07-22T09:50:32;7.75;;;6.57;;
21814;SDS011;11069;48.988;8.450;2022-07-22T09:52:59;9.18;;;7.38;;
21814;SDS011;11069;48.988;8.450;2022-07-22T09:55:26;8.80;;;6.97;;
21814;SDS011;11069;48.988;8.450;2022-07-22T09:57:53;8.93;;;7.00;;
21814;SDS011;11069;48.988;8.450;2022-07-22T10:00:21;9.35;;;7.20;;
21814;SDS011;11069;48.988;8.450;2022-07-22T10:02:50;9.18;;;7.47;;
21814;SDS011;11069;48.988;8.450;2022-07-22T10:05:25;10.38;;;7.45;;
21814;SDS011;11069;48.988;8.450;2022-07-22T10:07:52;10.88;;;7.43;;
21814;SDS011;11069;48.988;8.450;2022-07-22T10:10:25;8.40;;;6.72;;
21814;SDS011;11069;48.988;8.450;2022-07-22T10:12:52;10.98;;;6.75;;
21814;SDS011;11069;48.988;8.450;2022-07-22T10:15:20;8.35;;;6.97;;
21814;SDS011;11069;48.988;8.450;2022-07-22T10:17:47;8.13;;;6.40;;
21814;SDS011;11069;48.988;8.450;2022-07-22T10:20:23;9.57;;;6.65;;
21814;SDS011;11069;48.988;8.450;2022-07-22T10:22:57;7.95;;;6.80;;
21814;SDS011;11069;48.988;8.450;2022-07-22T10:25:49;10.45;;;6.60;;
21814;SDS011;11069;48.988;8.450;2022-07-22T10:28:22;7.32;;;6.60;;
21814;SDS011;11069;48.988;8.450;2022-07-22T10:30:49;9.45;;;6.22;;
21814;SDS011;11069;48.988;8.450;2022-07-22T10:33:19;8.13;;;6.57;;
21814;SDS011;11069;48.988;8.450;2022-07-22T10:38:19;11.95;;;7.10;;
21814;SDS011;11069;48.988;8.450;2022-07-22T10:45:47;7.70;;;6.47;;
21814;SDS011;11069;48.988;8.450;2022-07-22T10:48:22;8.15;;;6.63;;
21814;SDS011;11069;48.988;8.450;2022-07-22T10:50:54;9.15;;;6.68;;
21814;SDS011;11069;48.988;8.450;2022-07-22T10:56:19;7.95;;;6.47;;
21814;SDS011;11069;48.988;8.450;2022-07-22T10:58:59;11.38;;;7.32;;
21814;SDS011;11069;48.988;8.450;2022-07-22T11:01:39;9.77;;;7.05;;
21814;SDS011;11069;48.988;8.450;2022-07-22T11:04:16;8.07;;;6.55;;
21814;SDS011;11069;48.988;8.450;2022-07-22T11:06:52;8.02;;;6.50;;
21814;SDS011;11069;48.988;8.450;2022-07-22T11:09:21;9.57;;;6.72;;
21814;SDS011;11069;48.988;8.450;2022-07-22T11:16:48;7.55;;;6.47;;
21814;SDS011;11069;48.988;8.450;2022-07-22T11:19:18;10.13;;;6.40;;
21814;SDS011;11069;48.988;8.450;2022-07-22T11:22:01;9.50;;;7.00;;
21814;SDS011;11069;48.988;8.450;2022-07-22T11:24:29;10.40;;;6.43;;
21814;SDS011;11069;48.988;8.450;2022-07-22T11:26:56;8.45;;;6.65;;
21814;SDS011;11069;48.988;8.450;2022-07-22T11:29:25;9.10;;;6.80;;
21814;SDS011;11069;48.988;8.450;2022-07-22T11:31:53;9.48;;;5.85;;
21814;SDS011;11069;48.988;8.450;2022-07-22T11:34:23;8.82;;;6.32;;
21814;SDS011;11069;48.988;8.450;2022-07-22T11:36:50;10.68;;;7.03;;
21814;SDS011;11069;48.988;8.450;2022-07-22T11:39:20;11.32;;;6.72;;
21814;SDS011;11069;48.988;8.450;2022-07-22T11:41:48;12.57;;;6.80;;
21814;SDS011;11069;48.988;8.450;2022-07-22T11:44:19;10.77;;;6.60;;
21814;SDS011;11069;48.988;8.450;2022-07-22T11:46:47;8.10;;;6.22;;
21814;SDS011;11069;48.988;8.450;2022-07-22T11:49:14;7.68;;;6.43;;
21814;SDS011;11069;48.988;8.450;2022-07-22T11:51:41;7.15;;;6.10;;
21814;SDS011;11069;48.988;8.450;2022-07-22T11:54:07;7.00;;;6.32;;
21814;SDS011;11069;48.988;8.450;2022-07-22T11:56:33;8.75;;;6.90;;
21814;SDS011;11069;48.988;8.450;2022-07-22T11:58:59;10.20;;;6.85;;
21814;SDS011;11069;48.988;8.450;2022-07-22T12:03:57;10.45;;;6.55;;
21814;SDS011;11069;48.988;8.450;2022-07-22T12:06:26;10.05;;;6.40;;
21814;SDS011;11069;48.988;8.450;2022-07-22T12:08:52;11.95;;;6.65;;
21814;SDS011;11069;48.988;8.450;2022-07-22T12:11:20;11.32;;;6.05;;
21814;SDS011;11069;48.988;8.450;2022-07-22T12:13:49;10.43;;;6.57;;
21814;SDS011;11069;48.988;8.450;2022-07-22T12:16:34;8.02;;;6.43;;
21814;SDS011;11069;48.988;8.450;2022-07-22T12:21:28;9.40;;;6.70;;
21814;SDS011;11069;48.988;8.450;2022-07-22T12:23:57;8.18;;;6.70;;
21814;SDS011;11069;48.988;8.450;2022-07-22T12:26:42;6.97;;;6.28;;
21814;SDS011;11069;48.988;8.450;2022-07-22T12:29:29;8.80;;;6.30;;
21814;SDS011;11069;48.988;8.450;2022-07-22T12:32:04;10.73;;;6.28;;
21814;SDS011;11069;48.988;8.450;2022-07-22T12:34:38;7.57;;;6.20;;
21814;SDS011;11069;48.988;8.450;2022-07-22T12:42:41;9.35;;;6.25;;
21814;SDS011;11069;48.988;8.450;2022-07-22T12:45:15;8.75;;;6.25;;
21814;SDS011;11069;48.988;8.450;2022-07-22T12:47:43;7.35;;;6.03;;
21814;SDS011;11069;48.988;8.450;2022-07-22T12:50:37;10.57;;;6.30;;
21814;SDS011;11069;48.988;8.450;2022-07-22T12:53:19;12.50;;;5.90;;
21814;SDS011;11069;48.988;8.450;2022-07-22T12:58:12;11.77;;;6.43;;
21814;SDS011;11069;48.988;8.450;2022-07-22T13:00:39;6.78;;;6.05;;
21814;SDS011;11069;48.988;8.450;2022-07-22T13:03:10;8.80;;;5.88;;
21814;SDS011;11069;48.988;8.450;2022-07-22T13:05:36;9.85;;;5.82;;
21814;SDS011;11069;48.988;8.450;2022-07-22T13:08:03;8.85;;;6.00;;
21814;SDS011;11069;48.988;8.450;2022-07-22T13:10:29;7.72;;;6.03;;
21814;SDS011;11069;48.988;8.450;2022-07-22T13:12:55;6.90;;;6.10;;
21814;SDS011;11069;48.988;8.450;2022-07-22T13:15:21;7.50;;;6.30;;
21814;SDS011;11069;48.988;8.450;2022-07-22T13:17:47;7.43;;;6.30;;
21814;SDS011;11069;48.988;8.450;2022-07-22T13:20:14;7.43;;;6.28;;
21814;SDS011;11069;48.988;8.450;2022-07-22T13:22:42;8.73;;;6.15;;
21814;SDS011;11069;48.988;8.450;2022-07-22T13:25:08;8.40;;;6.13;;
21814;SDS011;11069;48.988;8.450;2022-07-22T13:27:34;7.75;;;6.00;;
21814;SDS011;11069;48.988;8.450;2022-07-22T13:29:59;6.55;;;5.75;;
21814;SDS011;11069;48.988;8.450;2022-07-22T13:32:25;10.55;;;6.82;;
21814;SDS011;11069;48.988;8.450;2022-07-22T13:34:50;8.32;;;5.75;;
21814;SDS011;11069;48.988;8.450;2022-07-22T13:37:16;12.25;;;6.07;;
21814;SDS011;11069;48.988;8.450;2022-07-22T13:39:42;9.13;;;6.22;;
21814;SDS011;11069;48.988;8.450;2022-07-22T13:42:10;8.32;;;6.20;;
21814;SDS011;11069;48.988;8.450;2022-07-22T13:44:36;8.52;;;6.13;;
21814;SDS011;11069;48.988;8.450;2022-07-22T13:47:02;10.93;;;6.05;;
21814;SDS011;11069;48.988;8.450;2022-07-22T13:49:28;9.93;;;6.20;;
21814;SDS011;11069;48.988;8.450;2022-07-22T13:51:53;8.80;;;6.03;;
21814;SDS011;11069;48.988;8.450;2022-07-22T13:54:19;7.35;;;6.20;;
21814;SDS011;11069;48.988;8.450;2022-07-22T13:56:45;8.80;;;6.07;;
21814;SDS011;11069;48.988;8.450;2022-07-22T13:59:13;9.77;;;5.85;;
21814;SDS011;11069;48.988;8.450;2022-07-22T14:01:39;9.05;;;5.95;;
21814;SDS011;11069;48.988;8.450;2022-07-22T14:04:05;9.35;;;5.25;;
21814;SDS011;11069;48.988;8.450;2022-07-22T14:06:31;7.80;;;6.07;;
21814;SDS011;11069;48.988;8.450;2022-07-22T14:08:57;8.52;;;5.78;;
21814;SDS011;11069;48.988;8.450;2022-07-22T14:11:24;6.57;;;5.88;;
21814;SDS011;11069;48.988;8.450;2022-07-22T14:13:50;9.63;;;5.53;;
21814;SDS011;11069;48.988;8.450;2022-07-22T14:16:16;7.70;;;5.60;;
21814;SDS011;11069;48.988;8.450;2022-07-22T14:19:07;9.98;;;6.30;;
21814;SDS011;11069;48.988;8.450;2022-07-22T14:21:35;6.93;;;5.97;;
21814;SDS011;11069;48.988;8.450;2022-07-22T14:24:02;10.10;;;6.32;;
21814;SDS011;11069;48.988;8.450;2022-07-22T14:26:28;7.18;;;5.65;;
21814;SDS011;11069;48.988;8.450;2022-07-22T14:28:54;8.75;;;5.72;;
21814;SDS011;11069;48.988;8.450;2022-07-22T14:31:20;9.90;;;6.05;;
21814;SDS011;11069;48.988;8.450;2022-07-22T14:33:46;8.75;;;6.05;;
21814;SDS011;11069;48.988;8.450;2022-07-22T14:36:12;8.60;;;5.82;;
21814;SDS011;11069;48.988;8.450;2022-07-22T14:38:38;10.65;;;5.85;;
21814;SDS011;11069;48.988;8.450;2022-07-22T14:41:04;8.30;;;6.13;;
21814;SDS011;11069;48.988;8.450;2022-07-22T14:43:29;7.82;;;6.32;;
21814;SDS011;11069;48.988;8.450;2022-07-22T14:45:55;6.97;;;5.93;;
21814;SDS011;11069;48.988;8.450;2022-07-22T14:48:21;9.52;;;6.07;;
21814;SDS011;11069;48.988;8.450;2022-07-22T14:50:46;9.18;;;5.60;;
21814;SDS011;11069;48.988;8.450;2022-07-22T14:53:12;6.75;;;5.93;;
21814;SDS011;11069;48.988;8.450;2022-07-22T14:55:38;7.82;;;5.65;;
21814;SDS011;11069;48.988;8.450;2022-07-22T14:58:04;8.10;;;5.85;;
21814;SDS011;11069;48.988;8.450;2022-07-22T15:00:30;8.23;;;6.03;;
21814;SDS011;11069;48.988;8.450;2022-07-22T15:02:56;7.53;;;5.95;;